Time;durP1;ratioP1;P1;durP2;ratioP2;P2;SDS_P1;SDS_P2;PMS_P1;PMS_P2;Temp;Humidity;BMP_temperature;BMP_pressure;BME280_temperature;BME280_humidity;BME280_pressure;Samples;Min_cycle;Max_cycle;Signal;HPM_P1;HPM_P2
2021/08/30 00:01:39;;;;;;;13.90;5.50;;;;;;;11.23;78.45;99955.63;111754;1202;22453;-59
2021/08/30 00:04:09;;;;;;;14.40;6.30;;;;;;;11.22;78.63;99950.22;111842;1203;22449;-59
2021/08/30 00:06:48;;;;;;;16.80;6.40;;;;;;;11.22;78.84;99949.19;111934;1202;25026;-59
2021/08/30 00:09:19;;;;;;;17.90;6.80;;;;;;;11.20;78.79;99953.20;111734;1201;22460;-58
2021/08/30 00:11:51;;;;;;;16.60;5.60;;;;;;;11.18;78.80;99951.84;111678;1201;24044;-58
2021/08/30 00:14:22;;;;;;;14.10;5.40;;;;;;;11.16;79.02;99951.06;111684;1201;22449;-60
2021/08/30 00:16:53;;;;;;;18.40;7.30;;;;;;;11.16;79.30;99950.61;111764;1202;22434;-60
2021/08/30 00:19:28;;;;;;;14.40;6.40;;;;;;;11.16;79.47;99946.29;111742;1198;22659;-60
2021/08/30 00:22:00;;;;;;;12.90;5.60;;;;;;;11.15;79.46;99944.75;111690;1201;22443;-59
2021/08/30 00:24:33;;;;;;;14.80;6.10;;;;;;;11.12;79.49;99947.77;111798;1202;22439;-59
2021/08/30 00:27:05;;;;;;;13.60;5.90;;;;;;;11.09;79.53;99954.75;111640;1202;22455;-59
2021/08/30 00:29:37;;;;;;;16.00;7.20;;;;;;;11.04;79.33;99961.34;111575;1202;25170;-60
2021/08/30 00:32:09;;;;;;;15.60;6.60;;;;;;;10.98;79.00;99959.17;111671;1201;22804;-59
2021/08/30 00:34:39;;;;;;;13.30;5.60;;;;;;;10.91;78.95;99962.52;111805;1202;25114;-58
2021/08/30 00:37:10;;;;;;;13.30;5.80;;;;;;;10.86;79.19;99963.70;111672;1202;25026;-58
2021/08/30 00:39:41;;;;;;;14.20;5.10;;;;;;;10.83;79.15;99970.74;111662;1202;25111;-59
2021/08/30 00:42:12;;;;;;;12.60;5.50;;;;;;;10.81;79.60;99976.86;111663;1202;24120;-58
2021/08/30 00:44:44;;;;;;;13.40;5.60;;;;;;;10.80;79.84;99981.36;111644;1202;25074;-58
2021/08/30 00:47:14;;;;;;;13.00;4.30;;;;;;;10.80;79.90;99982.44;111863;1203;24158;-59
2021/08/30 00:49:46;;;;;;;9.70;3.70;;;;;;;10.78;80.04;99981.85;111722;1201;25356;-59
2021/08/30 00:52:18;;;;;;;11.40;4.20;;;;;;;10.73;80.16;99982.75;111821;1201;22460;-58
2021/08/30 00:54:49;;;;;;;10.70;4.10;;;;;;;10.68;80.44;99984.61;111675;1201;24112;-59
2021/08/30 00:57:20;;;;;;;11.50;4.60;;;;;;;10.68;80.63;99985.11;111709;1202;22439;-59
2021/08/30 00:59:52;;;;;;;10.90;4.60;;;;;;;10.70;80.67;99984.38;111675;1202;25098;-60
2021/08/30 01:02:22;;;;;;;13.20;4.40;;;;;;;10.72;80.68;99984.81;111683;1201;22458;-59
2021/08/30 01:04:56;;;;;;;16.30;5.50;;;;;;;10.72;80.81;99985.83;111700;1203;22542;-59
2021/08/30 01:07:32;;;;;;;12.90;5.20;;;;;;;10.73;80.94;99986.56;112176;1202;26480;-59
2021/08/30 01:10:08;;;;;;;15.50;6.20;;;;;;;10.76;81.12;99988.37;111667;1202;24113;-58
2021/08/30 01:12:44;;;;;;;16.90;6.40;;;;;;;10.73;81.29;99987.27;111922;1201;22452;-59
2021/08/30 01:15:20;;;;;;;13.70;6.20;;;;;;;10.71;81.46;99986.06;111700;1201;25023;-59
2021/08/30 01:17:52;;;;;;;16.30;6.20;;;;;;;10.72;81.52;99980.40;111667;1201;22688;-59
2021/08/30 01:20:32;;;;;;;15.20;5.80;;;;;;;10.71;81.68;99980.85;111909;1201;22653;-59
2021/08/30 01:23:04;;;;;;;13.50;6.00;;;;;;;10.71;81.77;99981.91;111771;1203;24099;-59
2021/08/30 01:25:37;;;;;;;15.40;6.00;;;;;;;10.69;81.86;99987.92;111656;1203;24044;-60
2021/08/30 01:28:11;;;;;;;15.70;5.70;;;;;;;10.68;81.91;99993.34;111602;1203;22558;-59
2021/08/30 01:30:46;;;;;;;13.20;5.40;;;;;;;10.67;82.11;99995.70;111818;1203;22456;-59
2021/08/30 01:33:18;;;;;;;14.50;5.60;;;;;;;10.64;82.22;99993.94;111794;1203;24220;-61
2021/08/30 01:35:50;;;;;;;15.60;6.00;;;;;;;10.64;82.24;99986.62;111946;1201;22449;-59
2021/08/30 01:38:21;;;;;;;13.80;6.70;;;;;;;10.64;82.43;99986.87;111906;1201;22459;-60
2021/08/30 01:40:52;;;;;;;14.50;6.40;;;;;;;10.64;82.73;99980.93;111909;1202;24199;-60
2021/08/30 01:43:23;;;;;;;17.70;5.80;;;;;;;10.67;82.82;99975.84;112080;1202;23016;-59
2021/08/30 01:46:01;;;;;;;16.90;7.00;;;;;;;10.69;83.00;99972.29;111799;1201;22442;-59
2021/08/30 01:48:34;;;;;;;15.50;6.30;;;;;;;10.71;82.78;99972.63;111667;1195;22464;-60
2021/08/30 01:51:06;;;;;;;14.30;5.30;;;;;;;10.73;82.56;99967.27;111718;1203;24473;-60
2021/08/30 01:53:37;;;;;;;13.40;5.40;;;;;;;10.74;82.41;99970.48;111780;1201;22461;-60
2021/08/30 01:56:09;;;;;;;13.50;5.30;;;;;;;10.74;82.27;99969.92;111998;1201;22460;-59
2021/08/30 02:01:31;;;;;;;14.30;5.70;;;;;;;10.74;82.03;99956.92;111663;1201;22452;-58
2021/08/30 02:04:02;;;;;;;12.50;4.70;;;;;;;10.73;82.12;99952.81;111810;1203;25396;-59
2021/08/30 02:06:35;;;;;;;14.10;5.60;;;;;;;10.74;82.32;99948.69;111728;1201;24182;-60
2021/08/30 02:09:06;;;;;;;13.30;5.20;;;;;;;10.74;82.42;99942.45;111765;1204;22558;-59
2021/08/30 02:11:38;;;;;;;17.80;7.40;;;;;;;10.74;82.67;99944.13;111713;1203;22443;-59
2021/08/30 02:14:10;;;;;;;13.80;6.40;;;;;;;10.75;83.03;99940.02;111867;1202;24087;-59
2021/08/30 02:16:41;;;;;;;15.90;7.00;;;;;;;10.74;83.31;99928.33;111774;1204;22456;-61
2021/08/30 02:19:24;;;;;;;16.20;6.70;;;;;;;10.75;83.55;99938.52;111931;1201;24519;-61
2021/08/30 02:21:58;;;;;;;17.90;7.70;;;;;;;10.75;83.47;99941.36;111737;1203;22954;-59
2021/08/30 02:24:37;;;;;;;16.20;7.80;;;;;;;10.75;83.57;99938.20;111730;1204;22456;-60
2021/08/30 02:27:16;;;;;;;19.70;8.00;;;;;;;10.75;83.61;99937.78;111990;1203;22436;-59
2021/08/30 02:29:52;;;;;;;16.20;7.60;;;;;;;10.76;83.86;99930.09;112025;1203;25221;-59
2021/08/30 02:32:25;;;;;;;14.80;7.30;;;;;;;10.77;83.86;99930.36;111971;1201;22618;-59
2021/08/30 02:35:00;;;;;;;16.40;7.60;;;;;;;10.77;83.91;99933.70;111905;1204;22444;-59
2021/08/30 02:37:34;;;;;;;17.50;8.90;;;;;;;10.76;83.77;99936.35;111773;1203;24165;-59
2021/08/30 02:40:11;;;;;;;19.20;8.60;;;;;;;10.79;83.66;99932.77;112676;1196;25306;-56
2021/08/30 02:42:42;;;;;;;16.70;8.10;;;;;;;10.79;83.45;99929.02;112445;1201;22449;-60
2021/08/30 02:45:14;;;;;;;15.40;7.00;;;;;;;10.79;83.28;99934.45;112456;1201;23437;-61
2021/08/30 02:47:47;;;;;;;17.30;7.60;;;;;;;10.79;83.17;99933.88;112593;1201;22464;-59
2021/08/30 02:50:18;;;;;;;16.60;6.60;;;;;;;10.80;83.05;99930.41;112533;1201;24030;-59
2021/08/30 02:52:51;;;;;;;16.30;7.10;;;;;;;10.81;83.26;99927.97;112519;1201;24042;-58
2021/08/30 02:55:22;;;;;;;21.00;8.50;;;;;;;10.83;83.52;99929.17;112563;1201;22452;-58
2021/08/30 02:57:55;;;;;;;19.00;7.30;;;;;;;10.86;83.44;99928.94;112578;1201;24232;-58
2021/08/30 03:00:26;;;;;;;15.20;6.90;;;;;;;10.87;83.35;99929.11;112576;1201;24250;-59
2021/08/30 03:02:57;;;;;;;15.90;6.60;;;;;;;10.87;83.32;99929.80;112487;1201;25096;-56
2021/08/30 03:05:29;;;;;;;20.20;7.50;;;;;;;10.88;83.37;99931.21;112405;1201;22446;-58
2021/08/30 03:08:03;;;;;;;16.00;7.30;;;;;;;10.88;83.49;99932.30;112398;1203;22526;-59
2021/08/30 03:10:37;;;;;;;13.20;6.10;;;;;;;10.90;83.49;99932.61;112464;1201;22366;-59
2021/08/30 03:13:12;;;;;;;18.20;7.00;;;;;;;10.90;83.54;99931.61;112413;1201;22380;-58
2021/08/30 03:15:49;;;;;;;18.50;7.10;;;;;;;10.93;83.87;99927.88;112416;1201;22452;-58
2021/08/30 03:18:23;;;;;;;17.90;7.40;;;;;;;10.96;83.94;99934.36;112366;1201;22797;-58
2021/08/30 03:20:56;;;;;;;12.80;5.30;;;;;;;11.00;83.99;99936.79;112457;1201;26326;-57
2021/08/30 03:23:28;;;;;;;14.60;6.00;;;;;;;11.03;84.05;99944.66;112396;1201;22470;-55
2021/08/30 03:26:00;;;;;;;14.90;6.50;;;;;;;11.06;84.21;99947.20;112615;1201;22438;-58
2021/08/30 03:28:33;;;;;;;15.70;6.20;;;;;;;11.09;84.25;99951.09;112656;1201;22440;-57
2021/08/30 03:31:05;;;;;;;14.10;5.70;;;;;;;11.13;84.26;99960.67;112347;1201;22466;-56
2021/08/30 03:33:39;;;;;;;15.30;6.50;;;;;;;11.16;84.24;99966.30;112365;1201;22431;-57
2021/08/30 03:36:11;;;;;;;18.80;7.80;;;;;;;11.21;84.42;99969.42;112409;1201;22470;-59
2021/08/30 03:38:43;;;;;;;20.10;8.60;;;;;;;11.26;84.35;99978.21;112498;1201;25210;-58
2021/08/30 03:41:17;;;;;;;18.00;7.60;;;;;;;11.29;84.34;99982.21;112489;1201;25367;-58
2021/08/30 03:43:52;;;;;;;20.50;8.30;;;;;;;11.31;84.18;99981.73;112627;1201;22441;-58
2021/08/30 03:46:24;;;;;;;19.00;8.60;;;;;;;11.33;84.23;99975.95;112436;1201;24874;-59
2021/08/30 03:48:56;;;;;;;21.80;9.30;;;;;;;11.35;84.27;99975.06;112444;1201;24881;-58
2021/08/30 03:51:29;;;;;;;21.00;8.50;;;;;;;11.35;84.20;99974.60;112500;1201;22447;-57
2021/08/30 03:54:00;;;;;;;19.90;9.10;;;;;;;11.33;84.42;99967.98;112412;1201;25207;-56
2021/08/30 03:56:33;;;;;;;20.00;9.20;;;;;;;11.31;84.42;99961.25;112301;1201;22506;-57
2021/08/30 03:59:05;;;;;;;17.00;7.90;;;;;;;11.29;84.63;99961.23;112445;1201;22557;-58
2021/08/30 04:01:40;;;;;;;19.50;7.90;;;;;;;11.27;84.66;99960.35;112306;1201;22397;-57
2021/08/30 04:04:18;;;;;;;19.80;9.10;;;;;;;11.27;84.70;99964.36;112463;1201;22446;-57
2021/08/30 04:06:50;;;;;;;19.30;8.60;;;;;;;11.28;84.76;99960.52;112358;1201;22656;-58
2021/08/30 04:09:25;;;;;;;18.60;8.10;;;;;;;11.31;84.87;99967.54;112509;1201;22528;-57
2021/08/30 04:11:57;;;;;;;19.00;8.20;;;;;;;11.33;84.74;99967.98;112346;1201;24019;-57
2021/08/30 04:14:29;;;;;;;19.40;7.30;;;;;;;11.34;84.84;99964.40;112420;1201;23914;-57
2021/08/30 04:17:01;;;;;;;18.50;8.00;;;;;;;11.36;84.80;99968.36;112505;1201;22438;-59
2021/08/30 04:19:31;;;;;;;19.80;7.90;;;;;;;11.37;84.95;99972.86;112350;1201;25794;-58
2021/08/30 04:22:03;;;;;;;19.70;7.60;;;;;;;11.38;84.92;99968.14;112251;1201;22452;-59
2021/08/30 04:24:34;;;;;;;17.30;7.10;;;;;;;11.39;84.95;99963.63;112399;1201;24123;-58
2021/08/30 04:27:06;;;;;;;18.50;7.90;;;;;;;11.42;84.89;99966.96;112567;1201;22443;-58
2021/08/30 04:29:39;;;;;;;18.60;7.60;;;;;;;11.44;85.01;99972.43;112450;1201;23141;-58
2021/08/30 04:32:12;;;;;;;20.50;7.90;;;;;;;11.47;84.92;99970.63;112387;1201;24229;-57
2021/08/30 04:34:45;;;;;;;16.50;7.30;;;;;;;11.49;84.94;99971.05;112416;1201;22450;-57
2021/08/30 04:37:18;;;;;;;18.10;8.00;;;;;;;11.52;84.97;99967.23;112353;1201;22429;-58
2021/08/30 04:39:49;;;;;;;17.60;7.10;;;;;;;11.54;85.06;99971.11;112363;1201;22432;-56
2021/08/30 04:42:20;;;;;;;17.90;8.10;;;;;;;11.54;85.24;99971.21;112380;1201;22456;-58
2021/08/30 04:44:51;;;;;;;20.50;8.00;;;;;;;11.51;85.31;99968.58;112401;1201;22448;-59
2021/08/30 04:47:23;;;;;;;19.00;7.40;;;;;;;11.48;85.48;99967.95;112422;1201;24112;-58
2021/08/30 04:49:53;;;;;;;18.70;7.80;;;;;;;11.47;85.43;99966.86;113315;1201;23761;-60
2021/08/30 04:52:24;;;;;;;19.90;7.80;;;;;;;11.47;85.54;99969.77;113050;1201;22436;-57
2021/08/30 04:54:55;;;;;;;16.50;6.70;;;;;;;11.51;85.78;99969.80;112421;1201;25094;-58
2021/08/30 04:57:26;;;;;;;18.50;7.80;;;;;;;11.54;85.69;99968.77;112298;1201;25089;-64
2021/08/30 04:59:57;;;;;;;17.30;7.70;;;;;;;11.58;85.76;99966.16;112201;1202;22432;-59
2021/08/30 05:02:28;;;;;;;18.40;8.10;;;;;;;11.63;85.90;99964.44;112925;1202;25048;-59
2021/08/30 05:04:59;;;;;;;18.40;7.30;;;;;;;11.68;86.11;99970.93;112592;1201;24037;-53
2021/08/30 05:07:31;;;;;;;18.10;7.20;;;;;;;11.73;86.08;99973.27;112271;1200;23672;-65
2021/08/30 05:10:02;;;;;;;20.30;8.60;;;;;;;11.78;86.05;99970.63;112292;1201;23081;-59
2021/08/30 05:12:33;;;;;;;16.10;7.50;;;;;;;11.81;86.25;99972.89;112430;1201;25577;-55
2021/08/30 05:15:05;;;;;;;16.30;7.70;;;;;;;11.86;86.34;99980.82;112520;1201;22406;-55
2021/08/30 05:17:37;;;;;;;20.00;9.00;;;;;;;11.92;86.56;99982.20;112446;1201;22448;-59
2021/08/30 05:20:11;;;;;;;22.10;10.30;;;;;;;11.97;86.43;99982.11;112230;1201;24147;-59
2021/08/30 05:22:42;;;;;;;19.70;8.20;;;;;;;12.01;86.61;99979.29;112304;1202;25085;-59
2021/08/30 05:25:14;;;;;;;19.00;8.30;;;;;;;12.06;86.32;99985.48;112299;1201;24047;-58
2021/08/30 05:27:48;;;;;;;18.40;8.90;;;;;;;12.10;86.40;99991.01;112267;1201;22556;-58
2021/08/30 05:30:19;;;;;;;20.00;9.20;;;;;;;12.15;86.48;99993.00;112178;1202;22432;-63
2021/08/30 05:32:51;;;;;;;22.70;8.40;;;;;;;12.18;86.27;99991.59;112296;1201;22476;-58
2021/08/30 05:35:25;;;;;;;21.50;9.30;;;;;;;12.22;86.53;99992.08;112749;1201;25435;-63
2021/08/30 05:37:55;;;;;;;18.70;8.70;;;;;;;12.24;86.49;99989.85;112001;1201;25176;-58
2021/08/30 05:40:27;;;;;;;19.00;7.50;;;;;;;12.26;86.45;99990.04;111733;1202;25187;-58
2021/08/30 05:42:58;;;;;;;21.60;8.50;;;;;;;12.27;86.57;99988.20;111855;1201;22447;-58
2021/08/30 05:45:33;;;;;;;19.00;8.40;;;;;;;12.30;86.60;99989.70;111971;1202;26348;-59
2021/08/30 05:48:04;;;;;;;19.50;8.60;;;;;;;12.33;86.81;99983.36;112200;1201;25049;-58
2021/08/30 05:50:36;;;;;;;20.00;8.40;;;;;;;12.36;87.06;99981.16;112090;1202;22449;-61
2021/08/30 05:53:08;;;;;;;24.90;8.50;;;;;;;12.40;87.18;99976.65;112299;1202;24079;-60
2021/08/30 05:55:39;;;;;;;17.80;7.60;;;;;;;12.44;87.09;99977.59;111977;1201;22520;-57
2021/08/30 05:58:10;;;;;;;16.50;7.60;;;;;;;12.47;87.09;99971.00;111860;1201;22450;-60
2021/08/30 06:00:41;;;;;;;17.80;7.80;;;;;;;12.50;87.33;99965.36;111935;1202;25158;-58
2021/08/30 06:03:12;;;;;;;19.60;8.60;;;;;;;12.52;87.37;99962.59;111938;1202;22445;-58
2021/08/30 06:05:43;;;;;;;17.10;7.60;;;;;;;12.56;87.29;99967.80;112218;1201;24178;-57
2021/08/30 06:08:14;;;;;;;19.70;8.20;;;;;;;12.58;87.50;99969.24;112109;1201;24105;-60
2021/08/30 06:10:46;;;;;;;21.20;8.90;;;;;;;12.62;87.64;99965.79;112314;1201;25189;-58
2021/08/30 06:13:18;;;;;;;17.70;8.70;;;;;;;12.66;87.59;99964.40;111995;1204;24205;-58
2021/08/30 06:15:49;;;;;;;25.30;9.90;;;;;;;12.72;87.98;99967.85;111903;1201;22452;-60
2021/08/30 06:18:20;;;;;;;18.30;9.30;;;;;;;12.78;88.03;99968.10;111927;1201;22428;-59
2021/08/30 06:20:52;;;;;;;22.20;10.10;;;;;;;12.84;88.00;99969.77;112483;1204;22470;-59
2021/08/30 06:23:24;;;;;;;20.30;9.70;;;;;;;12.90;87.95;99979.27;112465;1201;22452;-58
2021/08/30 06:25:55;;;;;;;20.70;9.60;;;;;;;12.97;87.82;99976.90;112230;1201;25210;-59
2021/08/30 06:28:25;;;;;;;22.20;10.70;;;;;;;13.04;87.77;99982.67;112231;1202;23103;-57
2021/08/30 06:30:57;;;;;;;20.60;9.40;;;;;;;13.09;87.74;99983.77;111939;1205;22458;-58
2021/08/30 06:33:28;;;;;;;19.90;9.00;;;;;;;13.17;87.76;99982.58;111952;1202;24102;-59
2021/08/30 06:35:59;;;;;;;21.00;9.00;;;;;;;13.24;87.85;99984.14;112222;1202;25171;-57
2021/08/30 06:38:30;;;;;;;19.60;9.60;;;;;;;13.28;87.85;99981.61;111926;1201;23765;-58
2021/08/30 06:41:01;;;;;;;26.90;9.80;;;;;;;13.32;87.97;99978.46;111905;1195;24920;-57
2021/08/30 06:43:33;;;;;;;23.30;10.10;;;;;;;13.38;88.05;99973.17;111856;1202;22447;-59
2021/08/30 06:46:03;;;;;;;25.20;10.80;;;;;;;13.43;88.12;99968.36;112028;1202;23668;-61
2021/08/30 06:48:36;;;;;;;23.50;11.50;;;;;;;13.48;88.08;99968.47;112062;1202;22454;-57
2021/08/30 06:51:07;;;;;;;21.30;10.70;;;;;;;13.53;88.23;99973.12;112104;1201;25335;-60
2021/08/30 06:53:40;;;;;;;23.10;11.00;;;;;;;13.59;88.05;99968.09;111969;1202;25131;-59
2021/08/30 06:56:14;;;;;;;26.10;11.50;;;;;;;13.65;88.21;99966.73;112041;1201;22513;-61
2021/08/30 06:58:46;;;;;;;21.50;11.10;;;;;;;13.72;88.12;99968.83;111945;1201;24113;-59
2021/08/30 07:01:17;;;;;;;23.20;10.80;;;;;;;13.78;88.26;99972.06;112126;1202;22507;-59
2021/08/30 07:03:48;;;;;;;23.10;11.50;;;;;;;13.86;88.21;99971.06;111904;1201;22460;-58
2021/08/30 07:06:19;;;;;;;23.10;10.50;;;;;;;13.92;87.81;99965.80;112019;1200;22474;-59
2021/08/30 07:08:52;;;;;;;23.40;11.40;;;;;;;13.98;87.81;99970.10;111919;1202;22528;-59
2021/08/30 07:11:23;;;;;;;19.70;10.30;;;;;;;14.04;87.76;99974.34;112114;1202;22642;-60
2021/08/30 07:13:58;;;;;;;22.70;11.00;;;;;;;14.07;87.60;99973.56;112007;1201;22439;-60
2021/08/30 07:16:31;;;;;;;19.00;9.30;;;;;;;14.12;87.56;99975.77;114795;1202;22489;-55
2021/08/30 07:19:08;;;;;;;17.90;8.20;;;;;;;14.14;87.26;99973.27;111897;1202;23658;-59
2021/08/30 07:21:39;;;;;;;19.40;8.30;;;;;;;14.17;87.19;99970.31;112194;1201;25157;-59
2021/08/30 07:24:11;;;;;;;16.20;7.70;;;;;;;14.22;87.27;99973.78;111886;1202;22433;-59
2021/08/30 07:27:03;;;;;;;16.90;8.00;;;;;;;14.26;87.17;99975.20;111971;1201;22468;-58
2021/08/30 07:29:35;;;;;;;18.90;7.80;;;;;;;14.25;86.78;99976.90;111866;1201;22501;-60
2021/08/30 07:32:08;;;;;;;16.20;8.50;;;;;;;14.24;86.84;99981.33;112315;1201;25186;-61
2021/08/30 07:34:40;;;;;;;19.60;8.90;;;;;;;14.28;87.03;99983.24;112154;1202;25095;-60
2021/08/30 07:37:12;;;;;;;18.70;7.60;;;;;;;14.33;87.14;99979.21;111985;1202;24213;-56
2021/08/30 07:39:43;;;;;;;18.70;8.90;;;;;;;14.36;86.94;99980.85;112095;1201;22453;-58
2021/08/30 07:42:26;;;;;;;;;;;;;;;;;;;;;
2021/08/30 07:44:57;;;;;;;17.40;8.40;;;;;;;14.42;86.91;99984.63;111761;1202;22425;-58
2021/08/30 07:47:28;;;;;;;19.80;9.20;;;;;;;14.47;86.71;99983.19;111992;1201;23664;-59
2021/08/30 07:50:00;;;;;;;21.20;8.30;;;;;;;14.53;86.87;99984.15;112025;1200;22441;-58
2021/08/30 07:52:32;;;;;;;17.80;8.50;;;;;;;14.55;86.62;99991.98;111877;1202;22497;-61
2021/08/30 07:55:04;;;;;;;18.70;9.10;;;;;;;14.56;86.67;99992.54;112139;1202;22457;-58
2021/08/30 07:57:36;;;;;;;20.50;8.60;;;;;;;14.56;86.53;99990.19;111992;1202;22448;-59
2021/08/30 08:00:09;;;;;;;16.40;7.60;;;;;;;14.56;86.52;99992.23;112201;1201;22442;-59
2021/08/30 08:02:40;;;;;;;19.80;9.10;;;;;;;14.58;86.75;99991.66;112135;1201;24258;-58
2021/08/30 08:08:06;;;;;;;19.30;9.50;;;;;;;14.63;86.36;99997.64;112023;1202;25072;-60
2021/08/30 08:10:37;;;;;;;21.00;10.20;;;;;;;14.66;86.48;99998.95;111864;1201;22455;-59
2021/08/30 08:13:08;;;;;;;19.70;9.10;;;;;;;14.72;86.53;99996.19;111965;1207;22518;-61
2021/08/30 08:15:52;;;;;;;;;;;;;;;;;;;;;
2021/08/30 08:18:43;;;;;;;17.90;9.50;;;;;;;14.87;86.19;100002.91;112221;1205;22746;-61
2021/08/30 08:21:14;;;;;;;18.90;9.20;;;;;;;14.97;86.36;100006.92;112507;1202;24064;-59
2021/08/30 08:23:45;;;;;;;18.80;9.00;;;;;;;15.04;85.81;100009.70;112142;1202;22454;-60
2021/08/30 08:26:16;;;;;;;17.20;9.00;;;;;;;15.10;85.85;100009.85;112260;1202;22467;-58
2021/08/30 08:28:47;;;;;;;15.40;7.00;;;;;;;15.15;85.58;100010.59;112295;1203;25197;-61
2021/08/30 08:31:19;;;;;;;18.80;8.70;;;;;;;15.18;85.57;100013.29;112845;1201;25827;-60
2021/08/30 08:33:51;;;;;;;18.50;7.50;;;;;;;15.22;85.49;100016.20;112449;1202;25040;-62
2021/08/30 08:36:22;;;;;;;13.90;6.10;;;;;;;15.21;85.33;100015.32;112483;1201;25118;-58
2021/08/30 08:38:54;;;;;;;14.60;6.20;;;;;;;15.24;85.37;100010.98;112467;1200;22800;-60
2021/08/30 08:41:28;;;;;;;16.90;6.50;;;;;;;15.29;85.42;100012.85;112520;1195;25940;-61
2021/08/30 08:44:00;;;;;;;12.60;5.60;;;;;;;15.34;85.28;100011.70;111763;1202;23936;-60
2021/08/30 08:46:34;;;;;;;15.40;5.90;;;;;;;15.38;84.92;100011.79;111895;1203;22451;-60
2021/08/30 08:49:06;;;;;;;13.70;5.80;;;;;;;15.38;84.77;100015.72;114540;1210;22453;-61
2021/08/30 08:51:40;;;;;;;9.60;3.80;;;;;;;15.43;84.97;100012.45;111947;1202;24767;-61
2021/08/30 08:54:13;;;;;;;10.70;3.80;;;;;;;15.50;84.39;100015.09;111868;1203;26300;-61
2021/08/30 08:56:45;;;;;;;11.00;3.60;;;;;;;15.53;84.05;100017.48;113105;1204;25075;-61
2021/08/30 08:59:16;;;;;;;12.60;4.40;;;;;;;15.54;83.34;100017.33;111868;1206;25125;-61
2021/08/30 09:01:59;;;;;;;9.30;3.50;;;;;;;15.51;83.34;100016.31;111628;1205;22441;-61
2021/08/30 09:04:37;;;;;;;12.50;4.00;;;;;;;15.52;83.22;100013.75;111627;1204;22544;-61
2021/08/30 09:07:19;;;;;;;12.20;4.00;;;;;;;15.54;83.10;100009.15;111963;1205;22447;-61
2021/08/30 09:09:50;;;;;;;9.20;3.20;;;;;;;15.54;83.38;100008.98;111798;1206;24209;-61
2021/08/30 09:12:23;;;;;;;11.10;3.60;;;;;;;15.59;83.06;100007.79;112526;1202;24188;-61
2021/08/30 09:14:54;;;;;;;10.20;3.90;;;;;;;15.58;82.79;100007.89;111658;1202;25109;-61
2021/08/30 09:17:31;;;;;;;9.00;3.10;;;;;;;15.58;82.88;100004.41;111795;1203;24045;-61
2021/08/30 09:20:07;;;;;;;12.20;3.60;;;;;;;15.63;82.54;100002.70;111699;1206;22448;-61
2021/08/30 09:22:39;;;;;;;9.60;3.40;;;;;;;15.70;82.87;99998.42;111666;1202;22810;-62
2021/08/30 09:25:14;;;;;;;8.60;2.60;;;;;;;15.75;82.24;99999.35;112061;1205;25262;-61
2021/08/30 09:27:47;;;;;;;9.30;2.80;;;;;;;15.76;82.24;100000.21;111796;1205;22470;-60
2021/08/30 09:30:19;;;;;;;9.90;2.70;;;;;;;15.78;81.75;99999.39;111781;1202;25434;-61
2021/08/30 09:32:51;;;;;;;8.90;3.00;;;;;;;15.78;81.97;99999.54;112079;1202;24051;-61
2021/08/30 09:35:23;;;;;;;9.40;2.90;;;;;;;15.78;81.62;100000.98;111989;1202;27654;-61
2021/08/30 09:37:54;;;;;;;11.50;3.70;;;;;;;15.74;81.62;99997.73;111892;1202;25266;-61
2021/08/30 09:40:27;;;;;;;9.50;3.10;;;;;;;15.74;81.96;99996.64;111804;1203;25727;-61
2021/08/30 09:42:59;;;;;;;11.70;3.80;;;;;;;15.79;82.10;99995.24;111690;1205;25146;-62
2021/08/30 09:45:32;;;;;;;12.90;3.90;;;;;;;15.86;82.02;99992.69;111530;1203;22456;-61
2021/08/30 09:48:07;;;;;;;11.60;4.10;;;;;;;15.92;81.97;99989.99;111524;1203;22521;-61
2021/08/30 09:50:44;;;;;;;13.70;4.90;;;;;;;15.94;81.86;99992.33;111747;1203;25140;-60
2021/08/30 09:53:15;;;;;;;8.20;2.90;;;;;;;15.98;81.75;99995.38;111575;1202;22485;-61
2021/08/30 09:55:47;;;;;;;14.10;4.00;;;;;;;15.96;81.44;99998.61;111551;1205;22501;-61
2021/08/30 09:58:18;;;;;;;12.20;3.90;;;;;;;15.97;81.43;99996.19;111649;1205;25124;-61
2021/08/30 10:00:51;;;;;;;9.60;3.30;;;;;;;15.99;81.19;100001.50;112023;1202;25227;-61
2021/08/30 10:03:26;;;;;;;9.00;2.80;;;;;;;15.94;80.62;100000.77;111598;1202;25111;-61
2021/08/30 10:05:58;;;;;;;12.40;4.30;;;;;;;15.88;80.71;99999.23;111723;1202;25036;-61
2021/08/30 10:08:35;;;;;;;11.00;3.20;;;;;;;15.83;81.05;99998.39;111638;1202;25845;-61
2021/08/30 10:11:07;;;;;;;9.20;3.10;;;;;;;15.81;81.07;99995.59;111576;1203;25827;-61
2021/08/30 10:13:40;;;;;;;10.40;4.10;;;;;;;15.80;81.10;100001.07;111721;1202;23000;-61
2021/08/30 10:16:11;;;;;;;12.40;3.80;;;;;;;15.75;80.95;99999.61;112240;1201;25159;-62
2021/08/30 10:18:52;;;;;;;12.90;3.70;;;;;;;15.70;80.92;100003.52;111724;1202;23508;-62
2021/08/30 10:21:26;;;;;;;10.60;4.00;;;;;;;15.68;81.28;100002.88;111883;1205;25125;-62
2021/08/30 10:24:10;;;;;;;8.30;2.80;;;;;;;15.65;81.11;100000.74;111694;1202;25428;-62
2021/08/30 10:26:44;;;;;;;10.20;3.80;;;;;;;15.60;81.05;99999.95;111595;1203;24613;-61
2021/08/30 10:29:16;;;;;;;9.50;3.40;;;;;;;15.55;81.22;99999.92;111874;1202;22538;-62
2021/08/30 10:31:53;;;;;;;10.90;3.60;;;;;;;15.52;81.35;100005.46;111587;1203;22446;-62
2021/08/30 10:34:31;;;;;;;12.30;4.40;;;;;;;15.49;81.48;100003.28;112269;1202;24066;-61
2021/08/30 10:37:04;;;;;;;10.10;3.50;;;;;;;15.47;81.70;100000.33;111669;1202;25007;-61
2021/08/30 10:39:47;;;;;;;9.10;3.50;;;;;;;15.47;81.87;100007.80;111626;1205;22464;-61
2021/08/30 10:42:21;;;;;;;11.80;4.20;;;;;;;15.45;81.83;100007.50;111548;1202;22457;-62
2021/08/30 10:44:54;;;;;;;10.90;3.50;;;;;;;15.43;81.94;100003.52;111852;1202;23961;-62
2021/08/30 10:47:34;;;;;;;10.20;3.80;;;;;;;15.45;82.10;100006.98;111774;1202;22559;-62
2021/08/30 10:50:19;;;;;;;10.90;3.40;;;;;;;15.47;81.99;100006.52;111519;1202;22430;-62
2021/08/30 10:52:50;;;;;;;9.80;3.40;;;;;;;15.50;82.26;100006.29;111614;1202;23762;-61
2021/08/30 10:55:23;;;;;;;11.40;4.00;;;;;;;15.53;82.47;100007.70;111686;1202;24066;-62
2021/08/30 10:57:56;;;;;;;7.50;2.60;;;;;;;15.54;82.15;100011.34;111561;1203;25146;-62
2021/08/30 11:00:33;;;;;;;10.40;3.40;;;;;;;15.52;81.85;100010.53;111551;1202;22460;-62
2021/08/30 11:03:07;;;;;;;8.70;2.70;;;;;;;15.51;81.96;100010.29;111496;1203;22472;-62
2021/08/30 11:05:44;;;;;;;8.20;3.20;;;;;;;15.51;82.34;100013.30;111739;1203;25353;-62
2021/08/30 11:08:20;;;;;;;9.30;3.10;;;;;;;15.49;82.11;100015.77;111653;1203;25198;-61
2021/08/30 11:10:51;;;;;;;8.40;2.60;;;;;;;15.47;82.07;100015.62;111942;1203;22444;-62
2021/08/30 11:13:27;;;;;;;10.30;3.20;;;;;;;15.46;82.20;100017.63;111505;1202;25142;-62
2021/08/30 11:16:01;;;;;;;10.50;3.40;;;;;;;15.45;82.20;100014.80;111739;1206;24043;-63
2021/08/30 11:18:34;;;;;;;7.70;2.60;;;;;;;15.44;82.20;100013.42;111624;1202;25192;-63
2021/08/30 11:21:05;;;;;;;7.30;2.30;;;;;;;15.45;82.02;100017.11;111687;1206;22451;-63
2021/08/30 11:23:37;;;;;;;7.00;2.00;;;;;;;15.45;81.92;100017.77;111577;1202;22456;-63
2021/08/30 11:26:09;;;;;;;10.10;2.60;;;;;;;15.45;81.70;100018.55;111671;1205;22444;-62
2021/08/30 11:28:40;;;;;;;7.00;2.30;;;;;;;15.47;81.98;100021.40;111571;1202;24191;-62
2021/08/30 11:31:21;;;;;;;8.30;2.40;;;;;;;15.49;82.00;100018.12;111585;1203;22451;-62
2021/08/30 11:33:53;;;;;;;9.20;3.00;;;;;;;15.53;82.18;100018.30;111686;1202;25018;-62
2021/08/30 11:36:25;;;;;;;10.30;2.50;;;;;;;15.56;82.11;100016.23;111762;1205;22472;-62
2021/08/30 11:39:01;;;;;;;9.30;3.30;;;;;;;15.59;81.93;100011.36;111808;1202;22493;-62
2021/08/30 11:41:38;;;;;;;9.10;3.40;;;;;;;15.60;81.73;100011.66;111619;1203;22456;-63
2021/08/30 11:44:10;;;;;;;8.60;3.00;;;;;;;15.63;82.07;100010.58;111699;1202;22528;-63
2021/08/30 11:46:47;;;;;;;9.30;2.80;;;;;;;15.65;82.11;100007.24;111673;1203;24040;-63
2021/08/30 11:49:18;;;;;;;7.50;2.70;;;;;;;15.66;81.75;100008.15;111895;1203;22444;-63
2021/08/30 11:51:53;;;;;;;10.30;3.00;;;;;;;15.68;81.81;100006.36;111570;1202;24043;-63